sensor_id;sensor_type;location;lat;lon;timestamp;pressure;altitude;pressure_sealevel;temperature;humidity
69245;BME280;56357;52.304;4.870;2022-09-21T00:01:19;102904.69;;;16.99;nan
69245;BME280;56357;52.304;4.870;2022-09-21T00:03:46;102933.69;;;17.11;nan
69245;BME280;56357;52.304;4.870;2022-09-21T00:06:15;102929.16;;;17.10;nan
69245;BME280;56357;52.304;4.870;2022-09-21T00:08:43;102928.53;;;17.08;nan
69245;BME280;56357;52.304;4.870;2022-09-21T00:11:15;102924.66;;;17.09;nan
69245;BME280;56357;52.304;4.870;2022-09-21T00:13:42;102931.16;;;17.03;nan
69245;BME280;56357;52.304;4.870;2022-09-21T00:16:11;102911.63;;;16.90;nan
69245;BME280;56357;52.304;4.870;2022-09-21T00:18:38;102925.56;;;17.03;nan
69245;BME280;56357;52.304;4.870;2022-09-21T00:21:10;102908.84;;;16.83;nan
69245;BME280;56357;52.304;4.870;2022-09-21T00:23:37;102903.50;;;16.82;nan
69245;BME280;56357;52.304;4.870;2022-09-21T00:26:12;102931.41;;;16.95;nan
69245;BME280;56357;52.304;4.870;2022-09-21T00:28:39;102924.53;;;16.91;nan
69245;BME280;56357;52.304;4.870;2022-09-21T00:31:10;102911.41;;;16.85;nan
69245;BME280;56357;52.304;4.870;2022-09-21T00:33:38;102926.69;;;16.89;nan
69245;BME280;56357;52.304;4.870;2022-09-21T00:36:07;102925.00;;;16.88;nan
69245;BME280;56357;52.304;4.870;2022-09-21T00:38:35;102926.69;;;16.89;nan
69245;BME280;56357;52.304;4.870;2022-09-21T00:41:04;102924.34;;;16.86;nan
69245;BME280;56357;52.304;4.870;2022-09-21T00:43:33;102926.97;;;16.81;nan
69245;BME280;56357;52.304;4.870;2022-09-21T00:46:06;102908.25;;;16.75;nan
69245;BME280;56357;52.304;4.870;2022-09-21T00:48:36;102932.75;;;16.79;nan
69245;BME280;56357;52.304;4.870;2022-09-21T00:51:06;102934.72;;;16.79;nan
69245;BME280;56357;52.304;4.870;2022-09-21T00:53:34;102929.13;;;16.79;nan
69245;BME280;56357;52.304;4.870;2022-09-21T00:56:03;102923.13;;;16.69;nan
69245;BME280;56357;52.304;4.870;2022-09-21T00:58:34;102913.47;;;16.65;nan
69245;BME280;56357;52.304;4.870;2022-09-21T01:01:03;102899.94;;;16.62;nan
69245;BME280;56357;52.304;4.870;2022-09-21T01:03:31;102917.78;;;16.61;nan
69245;BME280;56357;52.304;4.870;2022-09-21T01:05:57;102905.72;;;16.60;nan
69245;BME280;56357;52.304;4.870;2022-09-21T01:08:25;102905.94;;;16.59;nan
69245;BME280;56357;52.304;4.870;2022-09-21T01:16:38;102920.75;;;16.66;nan
69245;BME280;56357;52.304;4.870;2022-09-21T01:22:13;102934.56;;;16.67;nan
69245;BME280;56357;52.304;4.870;2022-09-21T01:28:07;102913.53;;;16.52;nan
69245;BME280;56357;52.304;4.870;2022-09-21T01:30:17;102908.75;;;16.52;nan
69245;BME280;56357;52.304;4.870;2022-09-21T01:32:49;102910.94;;;16.50;nan
69245;BME280;56357;52.304;4.870;2022-09-21T01:35:27;102927.47;;;16.58;nan
69245;BME280;56357;52.304;4.870;2022-09-21T01:38:00;102928.97;;;16.61;nan
69245;BME280;56357;52.304;4.870;2022-09-21T01:40:48;102942.31;;;16.59;nan
69245;BME280;56357;52.304;4.870;2022-09-21T01:43:23;102926.63;;;16.58;nan
69245;BME280;56357;52.304;4.870;2022-09-21T01:45:53;102925.53;;;16.59;nan
69245;BME280;56357;52.304;4.870;2022-09-21T01:48:23;102928.34;;;16.59;nan
69245;BME280;56357;52.304;4.870;2022-09-21T01:50:53;102926.19;;;16.61;nan
69245;BME280;56357;52.304;4.870;2022-09-21T01:53:33;102898.44;;;16.46;nan
69245;BME280;56357;52.304;4.870;2022-09-21T01:56:24;102904.50;;;16.50;nan
69245;BME280;56357;52.304;4.870;2022-09-21T01:59:05;102937.81;;;16.58;nan
69245;BME280;56357;52.304;4.870;2022-09-21T02:01:36;102927.28;;;16.60;nan
69245;BME280;56357;52.304;4.870;2022-09-21T02:04:11;102920.41;;;16.49;nan
69245;BME280;56357;52.304;4.870;2022-09-21T02:06:40;102925.75;;;16.57;nan
69245;BME280;56357;52.304;4.870;2022-09-21T02:09:08;102918.00;;;16.59;nan
69245;BME280;56357;52.304;4.870;2022-09-21T02:11:36;102936.09;;;16.57;nan
69245;BME280;56357;52.304;4.870;2022-09-21T02:14:10;102915.66;;;16.43;nan
69245;BME280;56357;52.304;4.870;2022-09-21T02:16:51;102928.97;;;16.54;nan
69245;BME280;56357;52.304;4.870;2022-09-21T02:22:04;102921.50;;;16.48;nan
69245;BME280;56357;52.304;4.870;2022-09-21T02:24:34;102914.59;;;16.44;nan
69245;BME280;56357;52.304;4.870;2022-09-21T02:30:00;102936.72;;;16.59;nan
69245;BME280;56357;52.304;4.870;2022-09-21T02:32:33;102935.44;;;16.61;nan
69245;BME280;56357;52.304;4.870;2022-09-21T02:35:13;102933.69;;;16.60;nan
69245;BME280;56357;52.304;4.870;2022-09-21T02:37:48;102923.38;;;16.54;nan
69245;BME280;56357;52.304;4.870;2022-09-21T02:40:32;102933.28;;;16.57;nan
69245;BME280;56357;52.304;4.870;2022-09-21T02:43:13;102925.53;;;16.52;nan
69245;BME280;56357;52.304;4.870;2022-09-21T02:45:50;102923.38;;;16.54;nan
69245;BME280;56357;52.304;4.870;2022-09-21T02:48:46;102926.88;;;16.50;nan
69245;BME280;56357;52.304;4.870;2022-09-21T02:51:15;102907.28;;;16.50;nan
69245;BME280;56357;52.304;4.870;2022-09-21T02:53:43;102915.63;;;16.56;nan
69245;BME280;56357;52.304;4.870;2022-09-21T02:56:12;102914.81;;;16.56;nan
69245;BME280;56357;52.304;4.870;2022-09-21T02:58:44;102895.22;;;16.42;nan
69245;BME280;56357;52.304;4.870;2022-09-21T03:01:13;102919.53;;;16.48;nan
69245;BME280;56357;52.304;4.870;2022-09-21T03:03:41;102914.59;;;16.51;nan
69245;BME280;56357;52.304;4.870;2022-09-21T03:06:07;102921.28;;;16.50;nan
69245;BME280;56357;52.304;4.870;2022-09-21T03:08:34;102905.78;;;16.40;nan
69245;BME280;56357;52.304;4.870;2022-09-21T03:11:00;102924.47;;;16.46;nan
69245;BME280;56357;52.304;4.870;2022-09-21T03:13:27;102917.38;;;16.51;nan
69245;BME280;56357;52.304;4.870;2022-09-21T03:16:01;102922.53;;;16.47;nan
69245;BME280;56357;52.304;4.870;2022-09-21T03:18:29;102928.56;;;16.44;nan
69245;BME280;56357;52.304;4.870;2022-09-21T03:20:56;102919.97;;;16.39;nan
69245;BME280;56357;52.304;4.870;2022-09-21T03:23:22;102920.38;;;16.42;nan
69245;BME280;56357;52.304;4.870;2022-09-21T03:25:49;102922.97;;;16.44;nan
69245;BME280;56357;52.304;4.870;2022-09-21T03:28:17;102926.41;;;16.46;nan
69245;BME280;56357;52.304;4.870;2022-09-21T03:30:45;102925.97;;;16.42;nan
69245;BME280;56357;52.304;4.870;2022-09-21T03:33:12;102928.81;;;16.36;nan
69245;BME280;56357;52.304;4.870;2022-09-21T03:35:39;102928.41;;;16.32;nan
69245;BME280;56357;52.304;4.870;2022-09-21T03:38:06;102918.06;;;16.26;nan
69245;BME280;56357;52.304;4.870;2022-09-21T03:40:33;102933.97;;;16.32;nan
69245;BME280;56357;52.304;4.870;2022-09-21T03:42:59;102936.31;;;16.35;nan
69245;BME280;56357;52.304;4.870;2022-09-21T03:45:26;102935.28;;;16.30;nan
69245;BME280;56357;52.304;4.870;2022-09-21T03:47:56;102938.06;;;16.30;nan
69245;BME280;56357;52.304;4.870;2022-09-21T03:50:25;102935.50;;;16.28;nan
69245;BME280;56357;52.304;4.870;2022-09-21T03:52:52;102938.94;;;16.30;nan
69245;BME280;56357;52.304;4.870;2022-09-21T03:55:19;102924.72;;;16.25;nan
69245;BME280;56357;52.304;4.870;2022-09-21T03:57:45;102943.44;;;16.38;nan
69245;BME280;56357;52.304;4.870;2022-09-21T04:00:13;102938.25;;;16.35;nan
69245;BME280;56357;52.304;4.870;2022-09-21T04:02:40;102945.81;;;16.28;nan
69245;BME280;56357;52.304;4.870;2022-09-21T04:05:11;102929.03;;;16.28;nan
69245;BME280;56357;52.304;4.870;2022-09-21T04:07:39;102928.81;;;16.29;nan
69245;BME280;56357;52.304;4.870;2022-09-21T04:10:09;102936.78;;;16.26;nan
69245;BME280;56357;52.304;4.870;2022-09-21T04:12:37;102939.34;;;16.27;nan
69245;BME280;56357;52.304;4.870;2022-09-21T04:15:09;102926.47;;;16.26;nan
69245;BME280;56357;52.304;4.870;2022-09-21T04:17:36;102935.06;;;16.25;nan
69245;BME280;56357;52.304;4.870;2022-09-21T04:20:04;102938.72;;;16.25;nan
69245;BME280;56357;52.304;4.870;2022-09-21T04:22:30;102936.78;;;16.26;nan
69245;BME280;56357;52.304;4.870;2022-09-21T04:24:57;102931.84;;;16.21;nan
69245;BME280;56357;52.304;4.870;2022-09-21T04:27:23;102931.22;;;16.19;nan
69245;BME280;56357;52.304;4.870;2022-09-21T04:29:50;102946.44;;;16.23;nan
69245;BME280;56357;52.304;4.870;2022-09-21T04:32:16;102948.41;;;16.23;nan
69245;BME280;56357;52.304;4.870;2022-09-21T04:34:43;102944.53;;;16.24;nan
69245;BME280;56357;52.304;4.870;2022-09-21T04:37:09;102935.06;;;16.25;nan
69245;BME280;56357;52.304;4.870;2022-09-21T04:39:36;102941.94;;;16.22;nan
69245;BME280;56357;52.304;4.870;2022-09-21T04:42:04;102930.31;;;16.25;nan
69245;BME280;56357;52.304;4.870;2022-09-21T04:44:30;102933.34;;;16.30;nan
69245;BME280;56357;52.304;4.870;2022-09-21T04:46:57;102935.69;;;16.33;nan
69245;BME280;56357;52.304;4.870;2022-09-21T04:49:24;102928.81;;;16.29;nan
69245;BME280;56357;52.304;4.870;2022-09-21T04:51:50;102940.22;;;16.34;nan
69245;BME280;56357;52.304;4.870;2022-09-21T04:54:17;102935.47;;;16.35;nan
69245;BME280;56357;52.304;4.870;2022-09-21T04:56:43;102938.50;;;16.27;nan
69245;BME280;56357;52.304;4.870;2022-09-21T04:59:10;102939.34;;;16.27;nan
69245;BME280;56357;52.304;4.870;2022-09-21T05:01:36;102939.16;;;16.29;nan
69245;BME280;56357;52.304;4.870;2022-09-21T05:04:03;102944.53;;;16.30;nan
69245;BME280;56357;52.304;4.870;2022-09-21T05:06:31;102941.09;;;16.28;nan
69245;BME280;56357;52.304;4.870;2022-09-21T05:08:57;102917.03;;;16.21;nan
69245;BME280;56357;52.304;4.870;2022-09-21T05:11:42;102936.31;;;16.35;nan
69245;BME280;56357;52.304;4.870;2022-09-21T05:14:09;102922.81;;;16.32;nan
69245;BME280;56357;52.304;4.870;2022-09-21T05:16:35;102938.91;;;16.43;nan
69245;BME280;56357;52.304;4.870;2022-09-21T05:19:02;102940.63;;;16.58;nan
69245;BME280;56357;52.304;4.870;2022-09-21T05:21:29;102946.00;;;16.53;nan
69245;BME280;56357;52.304;4.870;2022-09-21T05:23:56;102937.59;;;16.59;nan
69245;BME280;56357;52.304;4.870;2022-09-21T05:26:23;102920.81;;;16.59;nan
69245;BME280;56357;52.304;4.870;2022-09-21T05:28:50;102940.56;;;16.71;nan
69245;BME280;56357;52.304;4.870;2022-09-21T05:33:57;102950.19;;;16.81;nan
69245;BME280;56357;52.304;4.870;2022-09-21T05:39:29;102953.22;;;16.80;nan
69245;BME280;56357;52.304;4.870;2022-09-21T05:41:56;102946.56;;;16.74;nan
69245;BME280;56357;52.304;4.870;2022-09-21T05:44:23;102946.75;;;16.79;nan
69245;BME280;56357;52.304;4.870;2022-09-21T05:46:54;102951.69;;;16.84;nan
69245;BME280;56357;52.304;4.870;2022-09-21T05:52:40;102958.56;;;16.88;nan
69245;BME280;56357;52.304;4.870;2022-09-21T05:55:25;102953.16;;;16.93;nan
69245;BME280;56357;52.304;4.870;2022-09-21T06:01:07;102959.38;;;16.95;nan
69245;BME280;56357;52.304;4.870;2022-09-21T06:03:37;102929.97;;;16.79;nan
69245;BME280;56357;52.304;4.870;2022-09-21T06:06:07;102961.56;;;16.93;nan
69245;BME280;56357;52.304;4.870;2022-09-21T06:08:34;102954.41;;;17.03;nan
69245;BME280;56357;52.304;4.870;2022-09-21T06:11:00;102954.81;;;17.07;nan
69245;BME280;56357;52.304;4.870;2022-09-21T06:13:27;102963.84;;;17.09;nan
69245;BME280;56357;52.304;4.870;2022-09-21T06:15:53;102965.53;;;17.16;nan
69245;BME280;56357;52.304;4.870;2022-09-21T06:18:20;102956.25;;;17.16;nan
69245;BME280;56357;52.304;4.870;2022-09-21T06:20:46;102958.88;;;17.11;nan
69245;BME280;56357;52.304;4.870;2022-09-21T06:23:13;102955.69;;;17.07;nan
69245;BME280;56357;52.304;4.870;2022-09-21T06:25:39;102964.28;;;17.06;nan
69245;BME280;56357;52.304;4.870;2022-09-21T06:28:09;102952.41;;;17.17;nan
69245;BME280;56357;52.304;4.870;2022-09-21T06:30:36;102960.81;;;17.17;nan
69245;BME280;56357;52.304;4.870;2022-09-21T06:33:05;102962.28;;;17.19;nan
69245;BME280;56357;52.304;4.870;2022-09-21T06:35:33;102962.72;;;17.23;nan
69245;BME280;56357;52.304;4.870;2022-09-21T06:38:02;102963.13;;;17.20;nan
69245;BME280;56357;52.304;4.870;2022-09-21T06:40:31;102961.63;;;17.24;nan
69245;BME280;56357;52.304;4.870;2022-09-21T06:42:59;102964.19;;;17.25;nan
69245;BME280;56357;52.304;4.870;2022-09-21T06:45:26;102960.53;;;17.25;nan
69245;BME280;56357;52.304;4.870;2022-09-21T06:47:53;102960.25;;;17.33;nan
69245;BME280;56357;52.304;4.870;2022-09-21T06:50:20;102941.19;;;17.17;nan
69245;BME280;56357;52.304;4.870;2022-09-21T06:52:46;102943.78;;;17.18;nan
69245;BME280;56357;52.304;4.870;2022-09-21T06:55:13;102957.50;;;17.26;nan
69245;BME280;56357;52.304;4.870;2022-09-21T06:57:40;102963.75;;;17.28;nan
69245;BME280;56357;52.304;4.870;2022-09-21T07:00:09;102968.66;;;17.33;nan
69245;BME280;56357;52.304;4.870;2022-09-21T07:02:36;102948.25;;;17.26;nan
69245;BME280;56357;52.304;4.870;2022-09-21T07:05:03;102974.47;;;17.38;nan
69245;BME280;56357;52.304;4.870;2022-09-21T07:07:29;102966.69;;;17.40;nan
69245;BME280;56357;52.304;4.870;2022-09-21T07:09:57;102974.63;;;17.43;nan
69245;BME280;56357;52.304;4.870;2022-09-21T07:12:29;102979.81;;;17.46;nan
69245;BME280;56357;52.304;4.870;2022-09-21T07:14:58;102973.97;;;17.48;nan
69245;BME280;56357;52.304;4.870;2022-09-21T07:17:30;102979.38;;;17.49;nan
69245;BME280;56357;52.304;4.870;2022-09-21T07:19:56;102983.44;;;17.53;nan
69245;BME280;56357;52.304;4.870;2022-09-21T07:22:23;102982.53;;;17.59;nan
69245;BME280;56357;52.304;4.870;2022-09-21T07:24:49;102981.66;;;17.65;nan
69245;BME280;56357;52.304;4.870;2022-09-21T07:27:16;102982.22;;;17.74;nan
69245;BME280;56357;52.304;4.870;2022-09-21T07:29:42;102978.97;;;17.77;nan
69245;BME280;56357;52.304;4.870;2022-09-21T07:32:08;102977.88;;;17.78;nan
69245;BME280;56357;52.304;4.870;2022-09-21T07:34:35;102961.44;;;17.81;nan
69245;BME280;56357;52.304;4.870;2022-09-21T07:37:02;102975.97;;;17.96;nan
69245;BME280;56357;52.304;4.870;2022-09-21T07:39:29;102981.16;;;17.99;nan
69245;BME280;56357;52.304;4.870;2022-09-21T07:41:55;102955.53;;;17.96;nan
69245;BME280;56357;52.304;4.870;2022-09-21T07:44:23;102970.59;;;18.19;nan
69245;BME280;56357;52.304;4.870;2022-09-21T07:46:50;102971.81;;;18.30;nan
69245;BME280;56357;52.304;4.870;2022-09-21T07:49:17;102971.69;;;18.43;nan
69245;BME280;56357;52.304;4.870;2022-09-21T07:51:43;102968.81;;;18.50;nan
69245;BME280;56357;52.304;4.870;2022-09-21T07:54:10;102978.78;;;18.64;nan
69245;BME280;56357;52.304;4.870;2022-09-21T07:56:37;102967.34;;;18.65;nan
69245;BME280;56357;52.304;4.870;2022-09-21T07:59:04;102970.69;;;18.74;nan
69245;BME280;56357;52.304;4.870;2022-09-21T08:01:34;102976.00;;;18.82;nan
69245;BME280;56357;52.304;4.870;2022-09-21T08:04:02;102961.88;;;18.88;nan
69245;BME280;56357;52.304;4.870;2022-09-21T08:06:30;102968.66;;;18.99;nan
69245;BME280;56357;52.304;4.870;2022-09-21T08:08:58;102966.91;;;19.16;nan
69245;BME280;56357;52.304;4.870;2022-09-21T08:11:26;102967.34;;;19.31;nan
69245;BME280;56357;52.304;4.870;2022-09-21T08:13:57;102940.06;;;19.20;nan
69245;BME280;56357;52.304;4.870;2022-09-21T08:16:24;102964.09;;;19.34;nan
69245;BME280;56357;52.304;4.870;2022-09-21T08:18:51;102976.84;;;19.48;nan
69245;BME280;56357;52.304;4.870;2022-09-21T08:21:18;102975.88;;;19.54;nan
69245;BME280;56357;52.304;4.870;2022-09-21T08:23:45;102979.84;;;19.65;nan
69245;BME280;56357;52.304;4.870;2022-09-21T08:26:14;102982.69;;;19.76;nan
69245;BME280;56357;52.304;4.870;2022-09-21T08:28:44;102984.56;;;19.82;nan
69245;BME280;56357;52.304;4.870;2022-09-21T08:31:14;102982.97;;;19.98;nan
69245;BME280;56357;52.304;4.870;2022-09-21T08:33:42;102982.63;;;20.06;nan
69245;BME280;56357;52.304;4.870;2022-09-21T08:36:09;102980.88;;;19.82;nan
69245;BME280;56357;52.304;4.870;2022-09-21T08:38:37;102990.69;;;20.02;nan
69245;BME280;56357;52.304;4.870;2022-09-21T08:41:23;102996.56;;;20.13;nan
69245;BME280;56357;52.304;4.870;2022-09-21T08:44:26;102988.53;;;20.28;nan
69245;BME280;56357;52.304;4.870;2022-09-21T08:46:47;102979.75;;;20.24;nan
69245;BME280;56357;52.304;4.870;2022-09-21T08:49:19;102986.25;;;20.36;nan
69245;BME280;56357;52.304;4.870;2022-09-21T08:51:59;102986.22;;;20.25;nan
69245;BME280;56357;52.304;4.870;2022-09-21T08:54:41;102969.22;;;20.43;nan
69245;BME280;56357;52.304;4.870;2022-09-21T08:57:12;102991.09;;;20.64;nan
69245;BME280;56357;52.304;4.870;2022-09-21T08:59:43;102991.25;;;20.57;nan
69245;BME280;56357;52.304;4.870;2022-09-21T09:02:21;102986.78;;;20.73;nan
69245;BME280;56357;52.304;4.870;2022-09-21T09:14:04;102964.28;;;20.73;nan
69245;BME280;56357;52.304;4.870;2022-09-21T09:17:10;102990.81;;;20.88;nan
69245;BME280;56357;52.304;4.870;2022-09-21T09:19:46;102995.38;;;21.01;nan
69245;BME280;56357;52.304;4.870;2022-09-21T09:22:20;102993.75;;;20.93;nan
69245;BME280;56357;52.304;4.870;2022-09-21T09:24:50;102995.72;;;21.05;nan
69245;BME280;56357;52.304;4.870;2022-09-21T09:27:27;102986.28;;;20.99;nan
69245;BME280;56357;52.304;4.870;2022-09-21T09:35:54;102998.56;;;21.33;nan
69245;BME280;56357;52.304;4.870;2022-09-21T09:44:31;102998.38;;;21.51;nan
69245;BME280;56357;52.304;4.870;2022-09-21T09:50:12;102992.81;;;21.56;nan
69245;BME280;56357;52.304;4.870;2022-09-21T09:52:45;102997.78;;;21.65;nan
69245;BME280;56357;52.304;4.870;2022-09-21T09:55:20;102993.22;;;21.76;nan
69245;BME280;56357;52.304;4.870;2022-09-21T09:57:48;102989.78;;;21.74;nan
69245;BME280;56357;52.304;4.870;2022-09-21T10:00:18;102999.56;;;21.83;nan
69245;BME280;56357;52.304;4.870;2022-09-21T10:02:50;102992.66;;;21.91;nan
69245;BME280;56357;52.304;4.870;2022-09-21T10:05:33;102987.81;;;21.86;nan
69245;BME280;56357;52.304;4.870;2022-09-21T10:08:02;102984.78;;;21.93;nan
69245;BME280;56357;52.304;4.870;2022-09-21T10:10:32;102997.06;;;22.15;nan
69245;BME280;56357;52.304;4.870;2022-09-21T10:13:11;102990.69;;;22.08;nan
69245;BME280;56357;52.304;4.870;2022-09-21T10:15:46;102991.03;;;21.95;nan
69245;BME280;56357;52.304;4.870;2022-09-21T10:18:43;102987.97;;;21.96;nan
69245;BME280;56357;52.304;4.870;2022-09-21T10:21:25;102984.91;;;21.98;nan
69245;BME280;56357;52.304;4.870;2022-09-21T10:23:57;102980.19;;;22.03;nan
69245;BME280;56357;52.304;4.870;2022-09-21T10:26:37;102983.28;;;22.18;nan
69245;BME280;56357;52.304;4.870;2022-09-21T10:34:29;102976.25;;;22.37;nan
69245;BME280;56357;52.304;4.870;2022-09-21T10:36:58;102970.34;;;22.06;nan
69245;BME280;56357;52.304;4.870;2022-09-21T10:41:55;102979.94;;;22.38;nan
69245;BME280;56357;52.304;4.870;2022-09-21T10:44:27;102980.75;;;22.38;nan
69245;BME280;56357;52.304;4.870;2022-09-21T10:46:55;102975.66;;;22.35;nan
69245;BME280;56357;52.304;4.870;2022-09-21T10:49:25;102975.44;;;22.42;nan
69245;BME280;56357;52.304;4.870;2022-09-21T10:51:56;102979.22;;;22.47;nan
69245;BME280;56357;52.304;4.870;2022-09-21T10:54:29;102974.78;;;22.35;nan
69245;BME280;56357;52.304;4.870;2022-09-21T10:57:07;102970.34;;;22.39;nan
69245;BME280;56357;52.304;4.870;2022-09-21T10:59:35;102973.06;;;22.50;nan
69245;BME280;56357;52.304;4.870;2022-09-21T11:02:35;102980.94;;;22.48;nan
69245;BME280;56357;52.304;4.870;2022-09-21T11:07:47;102965.75;;;22.71;nan
69245;BME280;56357;52.304;4.870;2022-09-21T11:10:20;102959.78;;;22.67;nan
69245;BME280;56357;52.304;4.870;2022-09-21T11:15:58;102954.13;;;22.67;nan
69245;BME280;56357;52.304;4.870;2022-09-21T11:18:54;102953.94;;;22.74;nan
69245;BME280;56357;52.304;4.870;2022-09-21T11:30:12;102954.16;;;22.89;nan
69245;BME280;56357;52.304;4.870;2022-09-21T11:39:02;102939.44;;;22.87;nan
69245;BME280;56357;52.304;4.870;2022-09-21T11:41:49;102945.69;;;22.89;nan
69245;BME280;56357;52.304;4.870;2022-09-21T11:47:08;102928.53;;;22.74;nan
69245;BME280;56357;52.304;4.870;2022-09-21T11:52:39;102938.97;;;22.73;nan
69245;BME280;56357;52.304;4.870;2022-09-21T11:55:21;102925.75;;;22.79;nan
69245;BME280;56357;52.304;4.870;2022-09-21T11:58:02;102923.19;;;22.78;nan
69245;BME280;56357;52.304;4.870;2022-09-21T12:06:02;102934.63;;;22.66;nan
69245;BME280;56357;52.304;4.870;2022-09-21T12:08:49;102913.22;;;22.70;nan
69245;BME280;56357;52.304;4.870;2022-09-21T12:14:40;102925.16;;;22.77;nan
69245;BME280;56357;52.304;4.870;2022-09-21T12:17:17;102925.50;;;22.59;nan
69245;BME280;56357;52.304;4.870;2022-09-21T12:19:50;102931.63;;;22.56;nan
69245;BME280;56357;52.304;4.870;2022-09-21T12:22:26;102933.69;;;22.60;nan
69245;BME280;56357;52.304;4.870;2022-09-21T12:24:58;102924.28;;;22.55;nan
69245;BME280;56357;52.304;4.870;2022-09-21T12:27:31;102906.25;;;22.39;nan
69245;BME280;56357;52.304;4.870;2022-09-21T12:30:19;102926.34;;;22.43;nan
69245;BME280;56357;52.304;4.870;2022-09-21T12:35:39;102929.59;;;22.35;nan
69245;BME280;56357;52.304;4.870;2022-09-21T12:38:34;102926.69;;;22.46;nan
69245;BME280;56357;52.304;4.870;2022-09-21T12:41:12;102915.63;;;22.61;nan
69245;BME280;56357;52.304;4.870;2022-09-21T12:43:52;102900.66;;;22.61;nan
69245;BME280;56357;52.304;4.870;2022-09-21T12:46:24;102913.59;;;22.57;nan
69245;BME280;56357;52.304;4.870;2022-09-21T12:48:53;102904.00;;;22.58;nan
69245;BME280;56357;52.304;4.870;2022-09-21T12:51:24;102904.09;;;22.63;nan
69245;BME280;56357;52.304;4.870;2022-09-21T12:53:55;102890.47;;;22.60;nan
69245;BME280;56357;52.304;4.870;2022-09-21T12:56:35;102904.31;;;22.61;nan
69245;BME280;56357;52.304;4.870;2022-09-21T12:59:24;102907.97;;;22.57;nan
69245;BME280;56357;52.304;4.870;2022-09-21T13:04:44;102904.59;;;22.60;nan
69245;BME280;56357;52.304;4.870;2022-09-21T13:09:58;102891.47;;;22.54;nan
69245;BME280;56357;52.304;4.870;2022-09-21T13:12:38;102890.69;;;22.37;nan
69245;BME280;56357;52.304;4.870;2022-09-21T13:15:16;102892.84;;;22.30;nan
69245;BME280;56357;52.304;4.870;2022-09-21T13:17:56;102902.94;;;22.26;nan
69245;BME280;56357;52.304;4.870;2022-09-21T13:20:24;102877.91;;;22.13;nan
69245;BME280;56357;52.304;4.870;2022-09-21T13:22:57;102886.78;;;22.21;nan
69245;BME280;56357;52.304;4.870;2022-09-21T13:25:26;102873.69;;;22.15;nan
69245;BME280;56357;52.304;4.870;2022-09-21T13:52:22;102878.38;;;21.88;nan
69245;BME280;56357;52.304;4.870;2022-09-21T13:54:56;102877.91;;;21.96;nan
69245;BME280;56357;52.304;4.870;2022-09-21T14:03:05;102881.78;;;21.90;nan
69245;BME280;56357;52.304;4.870;2022-09-21T14:05:47;102876.72;;;22.09;nan
69245;BME280;56357;52.304;4.870;2022-09-21T14:10:52;102868.91;;;22.16;nan
69245;BME280;56357;52.304;4.870;2022-09-21T14:13:39;102866.97;;;22.00;nan
69245;BME280;56357;52.304;4.870;2022-09-21T14:19:02;102862.88;;;21.91;nan
69245;BME280;56357;52.304;4.870;2022-09-21T14:21:29;102862.28;;;21.89;nan
69245;BME280;56357;52.304;4.870;2022-09-21T14:29:06;102870.69;;;21.83;nan
69245;BME280;56357;52.304;4.870;2022-09-21T14:31:36;102844.00;;;21.74;nan
69245;BME280;56357;52.304;4.870;2022-09-21T14:34:03;102831.16;;;21.67;nan
69245;BME280;56357;52.304;4.870;2022-09-21T14:36:40;102865.97;;;21.72;nan
69245;BME280;56357;52.304;4.870;2022-09-21T14:39:18;102859.13;;;21.68;nan
69245;BME280;56357;52.304;4.870;2022-09-21T14:41:48;102851.00;;;21.72;nan
69245;BME280;56357;52.304;4.870;2022-09-21T14:44:26;102853.31;;;21.92;nan
69245;BME280;56357;52.304;4.870;2022-09-21T14:47:15;102844.75;;;22.03;nan
69245;BME280;56357;52.304;4.870;2022-09-21T14:50:03;102833.47;;;22.03;nan
69245;BME280;56357;52.304;4.870;2022-09-21T14:52:50;102840.75;;;22.21;nan
69245;BME280;56357;52.304;4.870;2022-09-21T14:58:24;102835.84;;;22.33;nan
69245;BME280;56357;52.304;4.870;2022-09-21T15:00:54;102824.38;;;22.39;nan
69245;BME280;56357;52.304;4.870;2022-09-21T15:06:39;102818.72;;;22.39;nan
69245;BME280;56357;52.304;4.870;2022-09-21T15:12:53;102829.09;;;22.55;nan
69245;BME280;56357;52.304;4.870;2022-09-21T15:15:43;102819.34;;;22.63;nan
69245;BME280;56357;52.304;4.870;2022-09-21T15:18:19;102824.19;;;22.67;nan
69245;BME280;56357;52.304;4.870;2022-09-21T15:23:26;102816.09;;;22.54;nan
69245;BME280;56357;52.304;4.870;2022-09-21T15:26:01;102814.81;;;22.62;nan
69245;BME280;56357;52.304;4.870;2022-09-21T15:28:42;102804.84;;;22.81;nan
69245;BME280;56357;52.304;4.870;2022-09-21T15:31:13;102810.03;;;22.89;nan
69245;BME280;56357;52.304;4.870;2022-09-21T15:33:41;102799.88;;;23.15;nan
69245;BME280;56357;52.304;4.870;2022-09-21T15:36:10;102807.00;;;23.22;nan
69245;BME280;56357;52.304;4.870;2022-09-21T15:38:37;102802.38;;;23.38;nan
69245;BME280;56357;52.304;4.870;2022-09-21T15:41:05;102805.34;;;23.58;nan
69245;BME280;56357;52.304;4.870;2022-09-21T15:43:32;102800.63;;;23.69;nan
69245;BME280;56357;52.304;4.870;2022-09-21T15:46:05;102800.75;;;23.89;nan
69245;BME280;56357;52.304;4.870;2022-09-21T15:48:39;102804.94;;;24.13;nan
69245;BME280;56357;52.304;4.870;2022-09-21T15:51:19;102773.34;;;23.94;nan
69245;BME280;56357;52.304;4.870;2022-09-21T15:53:54;102805.19;;;24.11;nan
69245;BME280;56357;52.304;4.870;2022-09-21T15:56:26;102798.69;;;24.11;nan
69245;BME280;56357;52.304;4.870;2022-09-21T15:59:02;102792.13;;;24.05;nan
69245;BME280;56357;52.304;4.870;2022-09-21T16:01:38;102782.63;;;23.85;nan
69245;BME280;56357;52.304;4.870;2022-09-21T16:04:07;102797.22;;;23.67;nan
69245;BME280;56357;52.304;4.870;2022-09-21T16:06:39;102802.88;;;23.67;nan
69245;BME280;56357;52.304;4.870;2022-09-21T16:11:52;102783.72;;;23.42;nan
69245;BME280;56357;52.304;4.870;2022-09-21T16:14:19;102797.25;;;23.35;nan